sensor_id;sensor_type;location;lat;lon;timestamp;P1;durP1;ratioP1;P2;durP2;ratioP2
74108;SDS011;62466;47.566;7.786;2022-09-03T00:02:04;1.65;;;1.55;;
74108;SDS011;62466;47.566;7.786;2022-09-03T00:10:01;4.07;;;2.30;;
74108;SDS011;62466;47.566;7.786;2022-09-03T00:12:33;4.95;;;2.35;;
74108;SDS011;62466;47.566;7.786;2022-09-03T00:15:05;2.75;;;2.17;;
74108;SDS011;62466;47.566;7.786;2022-09-03T00:17:51;2.60;;;2.15;;
74108;SDS011;62466;47.566;7.786;2022-09-03T00:20:32;2.85;;;1.92;;
74108;SDS011;62466;47.566;7.786;2022-09-03T00:23:04;2.50;;;1.60;;
74108;SDS011;62466;47.566;7.786;2022-09-03T00:28:37;2.90;;;1.80;;
74108;SDS011;62466;47.566;7.786;2022-09-03T00:31:31;2.05;;;1.55;;
74108;SDS011;62466;47.566;7.786;2022-09-03T00:36:58;3.28;;;1.45;;
74108;SDS011;62466;47.566;7.786;2022-09-03T00:39:25;3.13;;;1.90;;
74108;SDS011;62466;47.566;7.786;2022-09-03T00:55:26;2.30;;;1.70;;
74108;SDS011;62466;47.566;7.786;2022-09-03T01:00:41;2.50;;;2.00;;
74108;SDS011;62466;47.566;7.786;2022-09-03T01:03:13;3.42;;;1.70;;
74108;SDS011;62466;47.566;7.786;2022-09-03T01:06:02;2.28;;;1.60;;
74108;SDS011;62466;47.566;7.786;2022-09-03T01:14:06;3.45;;;1.77;;
74108;SDS011;62466;47.566;7.786;2022-09-03T01:16:46;2.47;;;1.75;;
74108;SDS011;62466;47.566;7.786;2022-09-03T01:22:05;3.33;;;1.57;;
74108;SDS011;62466;47.566;7.786;2022-09-03T01:25:02;3.95;;;2.25;;
74108;SDS011;62466;47.566;7.786;2022-09-03T01:27:36;3.53;;;1.98;;
74108;SDS011;62466;47.566;7.786;2022-09-03T01:30:19;2.30;;;1.73;;
74108;SDS011;62466;47.566;7.786;2022-09-03T01:35:45;1.92;;;1.65;;
74108;SDS011;62466;47.566;7.786;2022-09-03T01:46:38;2.28;;;1.80;;
74108;SDS011;62466;47.566;7.786;2022-09-03T01:49:18;2.33;;;1.60;;
74108;SDS011;62466;47.566;7.786;2022-09-03T01:52:01;2.20;;;2.00;;
74108;SDS011;62466;47.566;7.786;2022-09-03T01:54:35;2.28;;;1.60;;
74108;SDS011;62466;47.566;7.786;2022-09-03T02:00:12;1.83;;;1.73;;
74108;SDS011;62466;47.566;7.786;2022-09-03T02:02:40;2.03;;;1.83;;
74108;SDS011;62466;47.566;7.786;2022-09-03T02:05:13;2.13;;;1.90;;
74108;SDS011;62466;47.566;7.786;2022-09-03T02:07:41;2.42;;;1.75;;
74108;SDS011;62466;47.566;7.786;2022-09-03T02:15:37;2.58;;;1.88;;
74108;SDS011;62466;47.566;7.786;2022-09-03T02:18:06;2.72;;;1.90;;
74108;SDS011;62466;47.566;7.786;2022-09-03T02:20:35;2.88;;;2.63;;
74108;SDS011;62466;47.566;7.786;2022-09-03T02:23:01;3.13;;;1.90;;
74108;SDS011;62466;47.566;7.786;2022-09-03T02:25:40;2.10;;;1.48;;
74108;SDS011;62466;47.566;7.786;2022-09-03T02:30:34;3.05;;;2.10;;
74108;SDS011;62466;47.566;7.786;2022-09-03T02:33:00;2.22;;;2.03;;
74108;SDS011;62466;47.566;7.786;2022-09-03T02:35:25;4.40;;;2.10;;
74108;SDS011;62466;47.566;7.786;2022-09-03T02:37:51;2.58;;;2.15;;
74108;SDS011;62466;47.566;7.786;2022-09-03T02:40:17;2.28;;;2.08;;
74108;SDS011;62466;47.566;7.786;2022-09-03T02:42:42;3.20;;;2.15;;
74108;SDS011;62466;47.566;7.786;2022-09-03T02:45:28;3.97;;;1.70;;
74108;SDS011;62466;47.566;7.786;2022-09-03T02:47:54;2.70;;;1.85;;
74108;SDS011;62466;47.566;7.786;2022-09-03T02:50:20;3.90;;;3.00;;
74108;SDS011;62466;47.566;7.786;2022-09-03T02:52:46;4.43;;;3.17;;
74108;SDS011;62466;47.566;7.786;2022-09-03T02:55:11;4.80;;;2.30;;
74108;SDS011;62466;47.566;7.786;2022-09-03T02:57:37;2.85;;;2.35;;
74108;SDS011;62466;47.566;7.786;2022-09-03T03:00:03;3.28;;;1.83;;
74108;SDS011;62466;47.566;7.786;2022-09-03T03:02:29;3.58;;;2.38;;
74108;SDS011;62466;47.566;7.786;2022-09-03T03:04:54;2.72;;;2.15;;
74108;SDS011;62466;47.566;7.786;2022-09-03T03:07:20;3.00;;;2.03;;
74108;SDS011;62466;47.566;7.786;2022-09-03T03:09:45;2.53;;;2.05;;
74108;SDS011;62466;47.566;7.786;2022-09-03T03:12:11;2.13;;;1.70;;
74108;SDS011;62466;47.566;7.786;2022-09-03T03:14:36;1.98;;;1.83;;
74108;SDS011;62466;47.566;7.786;2022-09-03T03:17:02;3.00;;;2.20;;
74108;SDS011;62466;47.566;7.786;2022-09-03T03:19:27;2.53;;;2.10;;
74108;SDS011;62466;47.566;7.786;2022-09-03T03:21:53;2.10;;;1.90;;
74108;SDS011;62466;47.566;7.786;2022-09-03T03:24:18;1.90;;;1.80;;
74108;SDS011;62466;47.566;7.786;2022-09-03T03:26:43;2.83;;;1.98;;
74108;SDS011;62466;47.566;7.786;2022-09-03T03:29:13;3.00;;;2.22;;
74108;SDS011;62466;47.566;7.786;2022-09-03T03:31:40;3.85;;;2.25;;
74108;SDS011;62466;47.566;7.786;2022-09-03T03:34:05;3.85;;;2.50;;
74108;SDS011;62466;47.566;7.786;2022-09-03T03:36:31;3.45;;;1.83;;
74108;SDS011;62466;47.566;7.786;2022-09-03T03:38:57;4.07;;;2.78;;
74108;SDS011;62466;47.566;7.786;2022-09-03T03:41:28;4.03;;;2.40;;
74108;SDS011;62466;47.566;7.786;2022-09-03T03:46:22;2.97;;;2.33;;
74108;SDS011;62466;47.566;7.786;2022-09-03T03:48:48;4.35;;;2.25;;
74108;SDS011;62466;47.566;7.786;2022-09-03T03:51:14;5.65;;;2.67;;
74108;SDS011;62466;47.566;7.786;2022-09-03T03:53:40;2.95;;;2.15;;
74108;SDS011;62466;47.566;7.786;2022-09-03T03:56:06;3.35;;;2.35;;
74108;SDS011;62466;47.566;7.786;2022-09-03T03:58:37;3.83;;;2.20;;
74108;SDS011;62466;47.566;7.786;2022-09-03T04:01:07;3.15;;;2.60;;
74108;SDS011;62466;47.566;7.786;2022-09-03T04:03:33;2.88;;;2.13;;
74108;SDS011;62466;47.566;7.786;2022-09-03T04:06:00;4.18;;;2.38;;
74108;SDS011;62466;47.566;7.786;2022-09-03T04:08:27;3.28;;;2.53;;
74108;SDS011;62466;47.566;7.786;2022-09-03T04:10:53;3.28;;;2.28;;
74108;SDS011;62466;47.566;7.786;2022-09-03T04:13:18;2.70;;;2.30;;
74108;SDS011;62466;47.566;7.786;2022-09-03T04:15:44;2.55;;;2.00;;
74108;SDS011;62466;47.566;7.786;2022-09-03T04:18:10;2.50;;;2.25;;
74108;SDS011;62466;47.566;7.786;2022-09-03T04:20:36;2.63;;;2.35;;
74108;SDS011;62466;47.566;7.786;2022-09-03T04:23:01;5.88;;;2.80;;
74108;SDS011;62466;47.566;7.786;2022-09-03T04:25:27;3.58;;;2.20;;
74108;SDS011;62466;47.566;7.786;2022-09-03T04:27:53;3.47;;;2.63;;
74108;SDS011;62466;47.566;7.786;2022-09-03T04:30:18;2.92;;;2.13;;
74108;SDS011;62466;47.566;7.786;2022-09-03T04:32:44;2.90;;;2.70;;
74108;SDS011;62466;47.566;7.786;2022-09-03T04:35:22;2.22;;;2.03;;
74108;SDS011;62466;47.566;7.786;2022-09-03T04:37:49;4.03;;;2.20;;
74108;SDS011;62466;47.566;7.786;2022-09-03T04:40:15;3.22;;;2.17;;
74108;SDS011;62466;47.566;7.786;2022-09-03T04:42:41;2.65;;;2.25;;
74108;SDS011;62466;47.566;7.786;2022-09-03T04:45:07;3.28;;;2.42;;
74108;SDS011;62466;47.566;7.786;2022-09-03T04:47:33;5.43;;;2.40;;
74108;SDS011;62466;47.566;7.786;2022-09-03T04:50:01;3.67;;;2.65;;
74108;SDS011;62466;47.566;7.786;2022-09-03T04:52:27;4.15;;;2.33;;
74108;SDS011;62466;47.566;7.786;2022-09-03T04:54:55;2.90;;;2.60;;
74108;SDS011;62466;47.566;7.786;2022-09-03T04:57:21;4.25;;;2.97;;
74108;SDS011;62466;47.566;7.786;2022-09-03T04:59:47;2.63;;;2.42;;
74108;SDS011;62466;47.566;7.786;2022-09-03T05:02:13;4.57;;;2.70;;
74108;SDS011;62466;47.566;7.786;2022-09-03T05:04:39;3.10;;;2.40;;
74108;SDS011;62466;47.566;7.786;2022-09-03T05:07:05;3.15;;;2.60;;
74108;SDS011;62466;47.566;7.786;2022-09-03T05:09:30;4.50;;;2.65;;
74108;SDS011;62466;47.566;7.786;2022-09-03T05:11:56;4.03;;;2.55;;
74108;SDS011;62466;47.566;7.786;2022-09-03T05:14:21;10.63;;;3.50;;
74108;SDS011;62466;47.566;7.786;2022-09-03T05:16:47;9.40;;;2.65;;
74108;SDS011;62466;47.566;7.786;2022-09-03T05:19:12;6.55;;;2.90;;
74108;SDS011;62466;47.566;7.786;2022-09-03T05:21:38;5.28;;;2.70;;
74108;SDS011;62466;47.566;7.786;2022-09-03T05:24:03;7.88;;;2.78;;
74108;SDS011;62466;47.566;7.786;2022-09-03T05:26:30;6.82;;;3.47;;
74108;SDS011;62466;47.566;7.786;2022-09-03T05:28:58;6.22;;;2.67;;
74108;SDS011;62466;47.566;7.786;2022-09-03T05:31:25;4.47;;;2.63;;
74108;SDS011;62466;47.566;7.786;2022-09-03T05:33:55;4.18;;;2.58;;
74108;SDS011;62466;47.566;7.786;2022-09-03T05:36:23;3.97;;;3.13;;
74108;SDS011;62466;47.566;7.786;2022-09-03T05:38:50;4.63;;;2.67;;
74108;SDS011;62466;47.566;7.786;2022-09-03T05:41:18;4.32;;;3.45;;
74108;SDS011;62466;47.566;7.786;2022-09-03T05:43:46;6.18;;;3.55;;
74108;SDS011;62466;47.566;7.786;2022-09-03T05:46:19;5.93;;;3.53;;
74108;SDS011;62466;47.566;7.786;2022-09-03T05:48:44;4.43;;;3.30;;
74108;SDS011;62466;47.566;7.786;2022-09-03T05:51:19;4.10;;;2.80;;
74108;SDS011;62466;47.566;7.786;2022-09-03T05:53:45;3.75;;;2.78;;
74108;SDS011;62466;47.566;7.786;2022-09-03T05:56:18;4.50;;;3.10;;
74108;SDS011;62466;47.566;7.786;2022-09-03T05:58:49;2.97;;;2.50;;
74108;SDS011;62466;47.566;7.786;2022-09-03T06:01:19;3.17;;;2.90;;
74108;SDS011;62466;47.566;7.786;2022-09-03T06:03:47;4.80;;;3.17;;
74108;SDS011;62466;47.566;7.786;2022-09-03T06:06:19;3.80;;;2.75;;
74108;SDS011;62466;47.566;7.786;2022-09-03T06:08:49;4.07;;;2.13;;
74108;SDS011;62466;47.566;7.786;2022-09-03T06:11:16;3.08;;;2.78;;
74108;SDS011;62466;47.566;7.786;2022-09-03T06:13:41;3.30;;;2.75;;
74108;SDS011;62466;47.566;7.786;2022-09-03T06:16:07;3.05;;;2.80;;
74108;SDS011;62466;47.566;7.786;2022-09-03T06:18:33;4.25;;;2.70;;
74108;SDS011;62466;47.566;7.786;2022-09-03T06:20:59;4.63;;;2.70;;
74108;SDS011;62466;47.566;7.786;2022-09-03T06:23:26;3.28;;;2.83;;
74108;SDS011;62466;47.566;7.786;2022-09-03T06:26:03;3.20;;;2.53;;
74108;SDS011;62466;47.566;7.786;2022-09-03T06:28:30;2.70;;;2.50;;
74108;SDS011;62466;47.566;7.786;2022-09-03T06:31:00;5.03;;;2.70;;
74108;SDS011;62466;47.566;7.786;2022-09-03T06:33:27;3.80;;;2.53;;
74108;SDS011;62466;47.566;7.786;2022-09-03T06:35:55;4.47;;;2.65;;
74108;SDS011;62466;47.566;7.786;2022-09-03T06:38:24;6.05;;;2.60;;
74108;SDS011;62466;47.566;7.786;2022-09-03T06:40:54;3.97;;;2.50;;
74108;SDS011;62466;47.566;7.786;2022-09-03T06:43:21;3.38;;;2.78;;
74108;SDS011;62466;47.566;7.786;2022-09-03T06:45:57;5.18;;;3.28;;
74108;SDS011;62466;47.566;7.786;2022-09-03T06:48:24;2.90;;;2.70;;
74108;SDS011;62466;47.566;7.786;2022-09-03T06:51:00;3.55;;;2.67;;
74108;SDS011;62466;47.566;7.786;2022-09-03T06:53:26;3.80;;;2.90;;
74108;SDS011;62466;47.566;7.786;2022-09-03T06:55:53;6.78;;;3.40;;
74108;SDS011;62466;47.566;7.786;2022-09-03T06:58:24;4.33;;;2.73;;
74108;SDS011;62466;47.566;7.786;2022-09-03T07:00:53;5.82;;;2.83;;
74108;SDS011;62466;47.566;7.786;2022-09-03T07:03:19;9.65;;;3.30;;
74108;SDS011;62466;47.566;7.786;2022-09-03T07:05:47;4.20;;;2.50;;
74108;SDS011;62466;47.566;7.786;2022-09-03T07:08:12;3.65;;;2.65;;
74108;SDS011;62466;47.566;7.786;2022-09-03T07:10:38;3.47;;;2.88;;
74108;SDS011;62466;47.566;7.786;2022-09-03T07:13:04;4.10;;;2.70;;
74108;SDS011;62466;47.566;7.786;2022-09-03T07:15:32;4.55;;;2.30;;
74108;SDS011;62466;47.566;7.786;2022-09-03T07:17:58;5.43;;;2.55;;
74108;SDS011;62466;47.566;7.786;2022-09-03T07:20:24;3.08;;;2.53;;
74108;SDS011;62466;47.566;7.786;2022-09-03T07:22:53;3.78;;;2.60;;
74108;SDS011;62466;47.566;7.786;2022-09-03T07:25:19;7.15;;;3.00;;
74108;SDS011;62466;47.566;7.786;2022-09-03T07:27:44;2.92;;;2.50;;
74108;SDS011;62466;47.566;7.786;2022-09-03T07:30:11;2.88;;;2.63;;
74108;SDS011;62466;47.566;7.786;2022-09-03T07:32:37;3.25;;;2.55;;
74108;SDS011;62466;47.566;7.786;2022-09-03T07:35:04;3.92;;;3.10;;
74108;SDS011;62466;47.566;7.786;2022-09-03T07:37:30;3.10;;;2.50;;
74108;SDS011;62466;47.566;7.786;2022-09-03T07:39:55;2.60;;;2.40;;
74108;SDS011;62466;47.566;7.786;2022-09-03T07:42:21;3.85;;;2.50;;
74108;SDS011;62466;47.566;7.786;2022-09-03T07:44:46;4.10;;;2.67;;
74108;SDS011;62466;47.566;7.786;2022-09-03T07:47:11;5.63;;;2.90;;
74108;SDS011;62466;47.566;7.786;2022-09-03T07:49:39;3.08;;;2.55;;
74108;SDS011;62466;47.566;7.786;2022-09-03T07:52:04;3.78;;;3.35;;
74108;SDS011;62466;47.566;7.786;2022-09-03T07:54:31;4.82;;;3.60;;
74108;SDS011;62466;47.566;7.786;2022-09-03T07:56:56;4.25;;;3.45;;
74108;SDS011;62466;47.566;7.786;2022-09-03T07:59:22;3.55;;;3.00;;
74108;SDS011;62466;47.566;7.786;2022-09-03T08:01:48;4.00;;;3.30;;
74108;SDS011;62466;47.566;7.786;2022-09-03T08:04:14;4.15;;;2.78;;
74108;SDS011;62466;47.566;7.786;2022-09-03T08:06:40;4.55;;;3.53;;
74108;SDS011;62466;47.566;7.786;2022-09-03T08:09:07;4.28;;;2.92;;
74108;SDS011;62466;47.566;7.786;2022-09-03T08:11:37;4.47;;;3.10;;
74108;SDS011;62466;47.566;7.786;2022-09-03T08:14:04;6.90;;;4.03;;
74108;SDS011;62466;47.566;7.786;2022-09-03T08:16:35;9.00;;;5.20;;
74108;SDS011;62466;47.566;7.786;2022-09-03T08:19:02;6.43;;;3.63;;
74108;SDS011;62466;47.566;7.786;2022-09-03T08:21:28;4.78;;;3.70;;
74108;SDS011;62466;47.566;7.786;2022-09-03T08:23:54;4.93;;;3.60;;
74108;SDS011;62466;47.566;7.786;2022-09-03T08:26:27;4.38;;;2.50;;
74108;SDS011;62466;47.566;7.786;2022-09-03T08:29:00;4.88;;;3.58;;
74108;SDS011;62466;47.566;7.786;2022-09-03T08:31:26;8.07;;;4.22;;
74108;SDS011;62466;47.566;7.786;2022-09-03T08:33:53;5.43;;;3.17;;
74108;SDS011;62466;47.566;7.786;2022-09-03T08:38:47;6.03;;;3.65;;
74108;SDS011;62466;47.566;7.786;2022-09-03T08:41:14;27.77;;;9.90;;
74108;SDS011;62466;47.566;7.786;2022-09-03T08:46:12;18.67;;;7.30;;
74108;SDS011;62466;47.566;7.786;2022-09-03T08:48:38;17.23;;;6.35;;
74108;SDS011;62466;47.566;7.786;2022-09-03T08:51:03;11.02;;;5.55;;
74108;SDS011;62466;47.566;7.786;2022-09-03T08:53:44;11.57;;;4.93;;
74108;SDS011;62466;47.566;7.786;2022-09-03T08:56:14;7.90;;;3.25;;
74108;SDS011;62466;47.566;7.786;2022-09-03T08:58:45;8.98;;;3.97;;
74108;SDS011;62466;47.566;7.786;2022-09-03T09:01:15;7.45;;;2.80;;
74108;SDS011;62466;47.566;7.786;2022-09-03T09:06:56;6.30;;;2.50;;
74108;SDS011;62466;47.566;7.786;2022-09-03T09:20:43;7.85;;;2.55;;
74108;SDS011;62466;47.566;7.786;2022-09-03T09:23:14;6.82;;;2.15;;
74108;SDS011;62466;47.566;7.786;2022-09-03T09:25:47;4.38;;;2.13;;
74108;SDS011;62466;47.566;7.786;2022-09-03T09:30:47;6.82;;;2.05;;
74108;SDS011;62466;47.566;7.786;2022-09-03T09:33:14;2.45;;;1.77;;
74108;SDS011;62466;47.566;7.786;2022-09-03T09:35:41;9.85;;;3.28;;
74108;SDS011;62466;47.566;7.786;2022-09-03T09:38:08;5.30;;;2.38;;
74108;SDS011;62466;47.566;7.786;2022-09-03T09:40:35;5.13;;;2.10;;
74108;SDS011;62466;47.566;7.786;2022-09-03T09:43:10;4.50;;;2.10;;
74108;SDS011;62466;47.566;7.786;2022-09-03T09:45:46;6.60;;;2.50;;
74108;SDS011;62466;47.566;7.786;2022-09-03T09:48:19;6.05;;;2.30;;
74108;SDS011;62466;47.566;7.786;2022-09-03T09:50:47;4.28;;;2.55;;
74108;SDS011;62466;47.566;7.786;2022-09-03T09:53:12;5.03;;;2.22;;
74108;SDS011;62466;47.566;7.786;2022-09-03T09:55:55;7.75;;;2.33;;
74108;SDS011;62466;47.566;7.786;2022-09-03T09:58:23;3.38;;;1.90;;
74108;SDS011;62466;47.566;7.786;2022-09-03T10:00:57;5.25;;;2.40;;
74108;SDS011;62466;47.566;7.786;2022-09-03T10:03:31;7.97;;;2.15;;
74108;SDS011;62466;47.566;7.786;2022-09-03T10:06:09;5.22;;;1.85;;
74108;SDS011;62466;47.566;7.786;2022-09-03T10:09:08;4.13;;;1.88;;
74108;SDS011;62466;47.566;7.786;2022-09-03T10:11:34;5.03;;;2.10;;
74108;SDS011;62466;47.566;7.786;2022-09-03T10:14:26;3.80;;;1.90;;
74108;SDS011;62466;47.566;7.786;2022-09-03T10:17:00;4.57;;;2.25;;
74108;SDS011;62466;47.566;7.786;2022-09-03T10:19:39;2.88;;;2.00;;
74108;SDS011;62466;47.566;7.786;2022-09-03T10:22:15;4.43;;;2.28;;
74108;SDS011;62466;47.566;7.786;2022-09-03T10:24:57;4.32;;;1.98;;
74108;SDS011;62466;47.566;7.786;2022-09-03T10:27:23;4.57;;;2.03;;
74108;SDS011;62466;47.566;7.786;2022-09-03T10:29:49;4.20;;;2.00;;
74108;SDS011;62466;47.566;7.786;2022-09-03T10:35:04;5.47;;;2.30;;
74108;SDS011;62466;47.566;7.786;2022-09-03T10:40:39;4.13;;;2.10;;
74108;SDS011;62466;47.566;7.786;2022-09-03T10:45:41;3.15;;;1.65;;
74108;SDS011;62466;47.566;7.786;2022-09-03T10:48:37;4.90;;;1.73;;
74108;SDS011;62466;47.566;7.786;2022-09-03T11:09:28;4.00;;;2.53;;
74108;SDS011;62466;47.566;7.786;2022-09-03T11:12:10;3.65;;;2.40;;
74108;SDS011;62466;47.566;7.786;2022-09-03T11:14:40;4.17;;;2.43;;
74108;SDS011;62466;47.566;7.786;2022-09-03T11:17:13;4.88;;;2.70;;
74108;SDS011;62466;47.566;7.786;2022-09-03T11:19:48;3.95;;;2.30;;
74108;SDS011;62466;47.566;7.786;2022-09-03T11:22:16;3.25;;;2.22;;
74108;SDS011;62466;47.566;7.786;2022-09-03T11:24:45;2.78;;;2.03;;
74108;SDS011;62466;47.566;7.786;2022-09-03T11:27:19;4.72;;;1.92;;
74108;SDS011;62466;47.566;7.786;2022-09-03T11:29:52;4.70;;;1.98;;
74108;SDS011;62466;47.566;7.786;2022-09-03T11:32:23;3.30;;;2.40;;
74108;SDS011;62466;47.566;7.786;2022-09-03T11:38:40;5.07;;;1.92;;
74108;SDS011;62466;47.566;7.786;2022-09-03T11:41:13;5.03;;;2.55;;
74108;SDS011;62466;47.566;7.786;2022-09-03T11:44:16;3.85;;;1.88;;
74108;SDS011;62466;47.566;7.786;2022-09-03T11:46:52;4.22;;;2.42;;
74108;SDS011;62466;47.566;7.786;2022-09-03T11:49:27;5.00;;;2.05;;
74108;SDS011;62466;47.566;7.786;2022-09-03T11:51:57;5.68;;;2.78;;
74108;SDS011;62466;47.566;7.786;2022-09-03T11:54:25;5.65;;;2.20;;
74108;SDS011;62466;47.566;7.786;2022-09-03T11:59:37;3.70;;;2.53;;
74108;SDS011;62466;47.566;7.786;2022-09-03T12:02:26;5.50;;;2.92;;
74108;SDS011;62466;47.566;7.786;2022-09-03T12:13:32;6.50;;;3.00;;
74108;SDS011;62466;47.566;7.786;2022-09-03T12:16:18;4.05;;;2.40;;
74108;SDS011;62466;47.566;7.786;2022-09-03T12:18:46;3.95;;;2.45;;
74108;SDS011;62466;47.566;7.786;2022-09-03T12:21:15;3.97;;;2.58;;
74108;SDS011;62466;47.566;7.786;2022-09-03T12:23:42;3.78;;;2.50;;
74108;SDS011;62466;47.566;7.786;2022-09-03T12:26:14;4.45;;;2.25;;
74108;SDS011;62466;47.566;7.786;2022-09-03T12:28:42;6.10;;;1.95;;
74108;SDS011;62466;47.566;7.786;2022-09-03T12:31:16;5.75;;;2.50;;
74108;SDS011;62466;47.566;7.786;2022-09-03T12:33:53;5.22;;;2.85;;
74108;SDS011;62466;47.566;7.786;2022-09-03T12:36:22;2.45;;;1.63;;
74108;SDS011;62466;47.566;7.786;2022-09-03T12:38:48;2.90;;;1.85;;
74108;SDS011;62466;47.566;7.786;2022-09-03T12:41:27;3.63;;;1.92;;
74108;SDS011;62466;47.566;7.786;2022-09-03T12:43:58;3.30;;;1.60;;
74108;SDS011;62466;47.566;7.786;2022-09-03T12:46:25;2.22;;;1.83;;
74108;SDS011;62466;47.566;7.786;2022-09-03T12:48:53;2.22;;;1.73;;
74108;SDS011;62466;47.566;7.786;2022-09-03T12:51:18;2.58;;;1.63;;
74108;SDS011;62466;47.566;7.786;2022-09-03T12:53:45;2.53;;;1.90;;
74108;SDS011;62466;47.566;7.786;2022-09-03T12:56:11;3.85;;;2.08;;
74108;SDS011;62466;47.566;7.786;2022-09-03T13:01:20;3.55;;;1.80;;
74108;SDS011;62466;47.566;7.786;2022-09-03T13:04:01;3.42;;;1.83;;
74108;SDS011;62466;47.566;7.786;2022-09-03T13:06:34;4.20;;;2.13;;
74108;SDS011;62466;47.566;7.786;2022-09-03T13:09:10;3.30;;;2.00;;
74108;SDS011;62466;47.566;7.786;2022-09-03T13:11:37;3.78;;;1.90;;
74108;SDS011;62466;47.566;7.786;2022-09-03T13:14:13;2.85;;;2.03;;
74108;SDS011;62466;47.566;7.786;2022-09-03T13:27:27;4.60;;;2.38;;
74108;SDS011;62466;47.566;7.786;2022-09-03T13:32:43;3.90;;;2.38;;
74108;SDS011;62466;47.566;7.786;2022-09-03T13:35:28;3.70;;;1.58;;
74108;SDS011;62466;47.566;7.786;2022-09-03T13:38:28;5.80;;;1.80;;
74108;SDS011;62466;47.566;7.786;2022-09-03T13:40:59;5.15;;;1.58;;
74108;SDS011;62466;47.566;7.786;2022-09-03T13:43:36;3.40;;;1.90;;
74108;SDS011;62466;47.566;7.786;2022-09-03T13:46:26;1.40;;;1.30;;
74108;SDS011;62466;47.566;7.786;2022-09-03T13:49:02;4.35;;;2.35;;
74108;SDS011;62466;47.566;7.786;2022-09-03T13:52:11;2.95;;;1.10;;
74108;SDS011;62466;47.566;7.786;2022-09-03T13:54:44;3.13;;;1.42;;
74108;SDS011;62466;47.566;7.786;2022-09-03T13:59:55;0.88;;;0.85;;
74108;SDS011;62466;47.566;7.786;2022-09-03T14:02:32;2.30;;;1.10;;
74108;SDS011;62466;47.566;7.786;2022-09-03T14:05:10;2.17;;;1.35;;
74108;SDS011;62466;47.566;7.786;2022-09-03T14:24:14;1.50;;;1.05;;
74108;SDS011;62466;47.566;7.786;2022-09-03T14:26:53;1.20;;;1.10;;
74108;SDS011;62466;47.566;7.786;2022-09-03T14:29:23;1.27;;;1.10;;
74108;SDS011;62466;47.566;7.786;2022-09-03T14:39:54;0.88;;;0.88;;
74108;SDS011;62466;47.566;7.786;2022-09-03T14:42:23;1.48;;;0.88;;
74108;SDS011;62466;47.566;7.786;2022-09-03T14:45:01;1.50;;;0.90;;
74108;SDS011;62466;47.566;7.786;2022-09-03T14:54:11;2.05;;;1.17;;
74108;SDS011;62466;47.566;7.786;2022-09-03T14:59:27;3.53;;;1.02;;
74108;SDS011;62466;47.566;7.786;2022-09-03T15:05:07;1.05;;;1.00;;
74108;SDS011;62466;47.566;7.786;2022-09-03T15:07:53;1.33;;;1.10;;
74108;SDS011;62466;47.566;7.786;2022-09-03T15:13:09;1.83;;;1.13;;
74108;SDS011;62466;47.566;7.786;2022-09-03T15:21:00;2.97;;;1.13;;
74108;SDS011;62466;47.566;7.786;2022-09-03T15:26:15;0.93;;;0.90;;
74108;SDS011;62466;47.566;7.786;2022-09-03T15:28:58;1.83;;;1.20;;
74108;SDS011;62466;47.566;7.786;2022-09-03T15:36:48;1.48;;;1.10;;
74108;SDS011;62466;47.566;7.786;2022-09-03T15:39:27;1.23;;;1.08;;
74108;SDS011;62466;47.566;7.786;2022-09-03T15:41:57;2.45;;;0.98;;
74108;SDS011;62466;47.566;7.786;2022-09-03T15:44:24;3.70;;;1.33;;
74108;SDS011;62466;47.566;7.786;2022-09-03T15:46:55;3.22;;;1.30;;
74108;SDS011;62466;47.566;7.786;2022-09-03T15:55:24;3.83;;;1.60;;
74108;SDS011;62466;47.566;7.786;2022-09-03T15:58:01;10.60;;;2.22;;
74108;SDS011;62466;47.566;7.786;2022-09-03T16:00:40;2.28;;;1.60;;
74108;SDS011;62466;47.566;7.786;2022-09-03T16:03:16;3.83;;;1.88;;
74108;SDS011;62466;47.566;7.786;2022-09-03T16:05:51;5.30;;;1.85;;
74108;SDS011;62466;47.566;7.786;2022-09-03T16:08:28;4.80;;;1.83;;
74108;SDS011;62466;47.566;7.786;2022-09-03T16:13:52;5.25;;;1.80;;
74108;SDS011;62466;47.566;7.786;2022-09-03T16:16:40;6.07;;;1.63;;
74108;SDS011;62466;47.566;7.786;2022-09-03T16:21:45;12.38;;;4.00;;
74108;SDS011;62466;47.566;7.786;2022-09-03T16:41:10;3.90;;;1.95;;
74108;SDS011;62466;47.566;7.786;2022-09-03T16:49:38;6.85;;;2.10;;
74108;SDS011;62466;47.566;7.786;2022-09-03T16:52:40;3.40;;;1.90;;
74108;SDS011;62466;47.566;7.786;2022-09-03T16:55:33;4.63;;;1.70;;
74108;SDS011;62466;47.566;7.786;2022-09-03T17:25:40;3.22;;;1.67;;
74108;SDS011;62466;47.566;7.786;2022-09-03T17:30:56;3.88;;;1.50;;
74108;SDS011;62466;47.566;7.786;2022-09-03T17:49:01;1.92;;;1.52;;
74108;SDS011;62466;47.566;7.786;2022-09-03T17:51:35;2.95;;;1.90;;
74108;SDS011;62466;47.566;7.786;2022-09-03T17:57:02;1.55;;;1.40;;
74108;SDS011;62466;47.566;7.786;2022-09-03T18:02:00;2.05;;;1.48;;
74108;SDS011;62466;47.566;7.786;2022-09-03T18:07:28;2.22;;;1.73;;
74108;SDS011;62466;47.566;7.786;2022-09-03T18:13:11;4.22;;;1.42;;
74108;SDS011;62466;47.566;7.786;2022-09-03T18:18:27;3.70;;;1.92;;
74108;SDS011;62466;47.566;7.786;2022-09-03T18:20:58;1.75;;;1.30;;
74108;SDS011;62466;47.566;7.786;2022-09-03T18:24:00;4.15;;;2.05;;
74108;SDS011;62466;47.566;7.786;2022-09-03T18:26:49;2.92;;;1.42;;
74108;SDS011;62466;47.566;7.786;2022-09-03T18:30:04;2.92;;;1.38;;
74108;SDS011;62466;47.566;7.786;2022-09-03T18:32:49;2.95;;;1.80;;
74108;SDS011;62466;47.566;7.786;2022-09-03T18:35:34;5.63;;;2.00;;
74108;SDS011;62466;47.566;7.786;2022-09-03T18:38:26;6.75;;;1.70;;
74108;SDS011;62466;47.566;7.786;2022-09-03T18:41:15;2.95;;;1.40;;
74108;SDS011;62466;47.566;7.786;2022-09-03T18:44:30;4.40;;;1.85;;
74108;SDS011;62466;47.566;7.786;2022-09-03T18:56:17;8.82;;;1.98;;
74108;SDS011;62466;47.566;7.786;2022-09-03T18:59:18;5.72;;;3.40;;
74108;SDS011;62466;47.566;7.786;2022-09-03T19:05:59;2.28;;;1.88;;
74108;SDS011;62466;47.566;7.786;2022-09-03T19:14:59;4.35;;;1.73;;
74108;SDS011;62466;47.566;7.786;2022-09-03T19:21:28;4.50;;;1.92;;
74108;SDS011;62466;47.566;7.786;2022-09-03T19:24:15;2.55;;;1.77;;
74108;SDS011;62466;47.566;7.786;2022-09-03T19:33:12;3.28;;;2.00;;
74108;SDS011;62466;47.566;7.786;2022-09-03T19:41:50;2.65;;;1.85;;
74108;SDS011;62466;47.566;7.786;2022-09-03T19:44:59;4.35;;;1.83;;
74108;SDS011;62466;47.566;7.786;2022-09-03T19:48:00;2.78;;;1.58;;
74108;SDS011;62466;47.566;7.786;2022-09-03T19:50:59;3.00;;;1.60;;
74108;SDS011;62466;47.566;7.786;2022-09-03T19:54:07;2.40;;;1.95;;
74108;SDS011;62466;47.566;7.786;2022-09-03T19:56:53;1.95;;;1.77;;
74108;SDS011;62466;47.566;7.786;2022-09-03T19:59:40;4.60;;;1.85;;
74108;SDS011;62466;47.566;7.786;2022-09-03T20:02:37;5.82;;;1.90;;
74108;SDS011;62466;47.566;7.786;2022-09-03T20:05:22;2.13;;;1.92;;
74108;SDS011;62466;47.566;7.786;2022-09-03T20:08:06;3.30;;;2.00;;
74108;SDS011;62466;47.566;7.786;2022-09-03T20:10:51;2.38;;;1.80;;
74108;SDS011;62466;47.566;7.786;2022-09-03T20:13:20;2.47;;;1.88;;
74108;SDS011;62466;47.566;7.786;2022-09-03T20:18:24;1.90;;;1.80;;
74108;SDS011;62466;47.566;7.786;2022-09-03T20:21:05;3.08;;;1.90;;
74108;SDS011;62466;47.566;7.786;2022-09-03T20:32:48;2.35;;;1.85;;
74108;SDS011;62466;47.566;7.786;2022-09-03T20:47:01;3.40;;;2.22;;
74108;SDS011;62466;47.566;7.786;2022-09-03T20:52:13;3.42;;;2.00;;
74108;SDS011;62466;47.566;7.786;2022-09-03T21:00:19;4.72;;;2.40;;
74108;SDS011;62466;47.566;7.786;2022-09-03T21:08:06;4.15;;;2.13;;
74108;SDS011;62466;47.566;7.786;2022-09-03T21:10:52;5.97;;;2.90;;
74108;SDS011;62466;47.566;7.786;2022-09-03T21:13:41;3.10;;;2.22;;
74108;SDS011;62466;47.566;7.786;2022-09-03T21:27:53;8.43;;;2.53;;
74108;SDS011;62466;47.566;7.786;2022-09-03T21:30:19;3.35;;;2.13;;
74108;SDS011;62466;47.566;7.786;2022-09-03T21:32:53;4.68;;;2.10;;
74108;SDS011;62466;47.566;7.786;2022-09-03T21:35:26;2.85;;;2.15;;